Time;durP1;ratioP1;P1;durP2;ratioP2;P2;SDS_P1;SDS_P2;PMS_P1;PMS_P2;Temp;Humidity;BMP_temperature;BMP_pressure;BME280_temperature;BME280_humidity;BME280_pressure;Samples;Min_cycle;Max_cycle;Signal;HPM_P1;HPM_P2
2022/01/12 00:01:10;;;;;;;7.30;5.10;;;4.70;99.90;;;;;;5027186;28;20531;-75
2022/01/12 00:03:36;;;;;;;6.20;5.20;;;4.60;99.90;;;;;;5025480;28;20450;-74
2022/01/12 00:06:03;;;;;;;4.90;4.30;;;4.50;99.90;;;;;;5027583;28;20858;-74
2022/01/12 00:08:31;;;;;;;7.13;4.70;;;4.40;99.90;;;;;;5026976;28;20352;-74
2022/01/12 00:11:01;;;;;;;6.90;5.37;;;4.30;99.90;;;;;;5029861;28;20436;-73
2022/01/12 00:13:27;;;;;;;7.03;4.73;;;4.30;99.90;;;;;;5035452;28;20731;-73
2022/01/12 00:15:53;;;;;;;6.93;4.80;;;4.60;99.90;;;;;;5026401;28;20937;-74
2022/01/12 00:18:20;;;;;;;6.80;4.90;;;4.10;99.90;;;;;;5027969;28;20498;-74
2022/01/12 00:20:46;;;;;;;8.30;5.10;;;4.10;99.90;;;;;;5045350;28;20256;-74
2022/01/12 00:23:13;;;;;;;5.90;4.80;;;4.20;99.90;;;;;;5042062;28;20516;-74
2022/01/12 00:25:58;;;;;;;8.47;5.20;;;;;;;;;;5019953;28;20408;-74
2022/01/12 00:33:55;;;;;;;6.43;4.70;;;3.80;99.90;;;;;;5027391;28;20459;-74
2022/01/12 00:36:21;;;;;;;6.33;4.73;;;3.80;99.90;;;;;;5025469;28;20436;-74
2022/01/12 00:38:47;;;;;;;6.43;4.90;;;3.70;99.90;;;;;;5026698;28;20460;-73
2022/01/12 00:41:16;;;;;;;5.90;5.00;;;3.70;99.90;;;;;;5027692;28;20212;-74
2022/01/12 00:43:44;;;;;;;7.10;5.50;;;3.60;99.90;;;;;;5030163;28;20895;-74
2022/01/12 00:46:09;;;;;;;8.53;4.97;;;3.50;99.90;;;;;;5027214;28;20499;-74
2022/01/12 00:48:36;;;;;;;7.63;5.03;;;3.40;99.90;;;;;;5027454;28;20928;-74
2022/01/12 00:51:03;;;;;;;7.83;5.27;;;3.40;99.90;;;;;;5025344;28;20186;-74
2022/01/12 00:53:29;;;;;;;7.20;5.00;;;3.30;99.90;;;;;;5026414;28;20446;-73
2022/01/12 00:55:55;;;;;;;6.60;5.03;;;3.30;99.90;;;;;;5026617;28;20519;-74
2022/01/12 00:58:21;;;;;;;6.50;5.10;;;3.20;99.90;;;;;;5029073;28;20559;-73
2022/01/12 01:00:46;;;;;;;7.47;5.53;;;3.10;99.90;;;;;;5026821;28;20320;-74
2022/01/12 01:03:12;;;;;;;6.77;5.10;;;3.00;99.90;;;;;;5026479;28;20289;-74
2022/01/12 01:05:38;;;;;;;10.03;6.60;;;3.00;99.90;;;;;;5026586;28;20188;-74
2022/01/12 01:08:04;;;;;;;10.83;6.53;;;2.90;99.90;;;;;;5026277;28;20208;-74
2022/01/12 01:10:45;;;;;;;12.13;7.33;;;;;;;;;;5029780;28;20186;-73
2022/01/12 01:13:13;;;;;;;11.20;7.03;;;;;;;;;;5032016;28;20442;-74
2022/01/12 01:16:28;;;;;;;9.40;7.13;;;2.80;99.90;;;;;;5025982;28;20430;-73
2022/01/12 01:26:41;;;;;;;9.77;6.20;;;2.40;99.90;;;;;;5027645;28;20404;-74
2022/01/12 01:29:07;;;;;;;9.97;6.80;;;;;;;;;;5026052;28;20444;-73
2022/01/12 01:31:34;;;;;;;10.07;6.50;;;2.30;99.90;;;;;;5026426;28;20728;-74
2022/01/12 01:34:09;;;;;;;9.57;6.27;;;2.40;99.90;;;;;;5024926;28;20487;-74
2022/01/12 01:36:55;;;;;;;8.30;5.73;;;2.40;99.90;;;;;;5025077;28;20432;-74
2022/01/12 01:39:23;;;;;;;9.97;6.70;;;2.40;99.90;;;;;;5016838;28;20905;-74
2022/01/12 01:41:57;;;;;;;9.20;6.00;;;2.30;99.90;;;;;;5027799;28;20451;-74
2022/01/12 01:55:10;;;;;;;11.23;6.67;;;2.10;99.90;;;;;;5024152;28;20439;-74
2022/01/12 01:57:37;;;;;;;8.27;6.10;;;2.20;99.90;;;;;;5029699;28;20941;-74
2022/01/12 02:00:09;;;;;;;9.37;6.20;;;2.20;99.90;;;;;;5029101;28;20456;-74
2022/01/12 02:02:34;;;;;;;8.60;5.87;;;2.10;99.90;;;;;;5029542;28;20824;-74
2022/01/12 02:05:00;;;;;;;8.70;5.90;;;2.20;99.90;;;;;;5029077;28;20457;-74
2022/01/12 02:07:26;;;;;;;7.27;5.50;;;2.00;99.90;;;;;;5028919;28;20363;-73
2022/01/12 02:09:52;;;;;;;8.70;5.70;;;1.90;99.90;;;;;;5023260;28;20286;-74
2022/01/12 02:12:25;;;;;;;6.47;5.10;;;1.90;99.90;;;;;;5036320;28;20511;-74
2022/01/12 02:14:51;;;;;;;7.27;5.60;;;1.80;99.90;;;;;;5034628;28;20177;-74
2022/01/12 02:17:21;;;;;;;10.33;6.23;;;1.80;99.90;;;;;;5031417;28;20474;-74
2022/01/12 02:36:11;;;;;;;10.03;5.90;;;1.40;99.90;;;;;;5028963;28;20850;-75
2022/01/12 02:41:03;;;;;;;8.60;5.27;;;1.30;99.90;;;;;;5028886;28;20787;-73
2022/01/12 02:53:48;;;;;;;7.37;5.60;;;1.00;99.90;;;;;;5027991;28;20439;-74
2022/01/12 02:56:16;;;;;;;9.97;5.50;;;0.90;99.90;;;;;;5027198;28;20261;-74
2022/01/12 02:58:44;;;;;;;7.83;5.80;;;0.90;99.90;;;;;;5029152;28;20671;-73
2022/01/12 03:03:45;;;;;;;7.00;5.20;;;0.80;99.90;;;;;;5028558;28;20432;-73
2022/01/12 03:06:15;;;;;;;9.00;6.63;;;0.80;99.90;;;;;;5022761;28;20534;-74
2022/01/12 03:08:41;;;;;;;8.37;5.73;;;0.70;99.90;;;;;;5026045;28;20582;-74
2022/01/12 03:11:09;;;;;;;13.00;5.73;;;0.70;99.90;;;;;;5027082;28;20432;-74
2022/01/12 03:13:35;;;;;;;10.50;6.10;;;0.60;99.90;;;;;;5026280;28;20219;-74
2022/01/12 03:16:11;;;;;;;7.33;5.10;;;0.60;99.90;;;;;;5027721;28;20425;-74
2022/01/12 03:18:37;;;;;;;8.87;5.67;;;0.60;99.90;;;;;;5027321;28;20556;-74
2022/01/12 03:21:04;;;;;;;14.33;8.10;;;0.60;99.90;;;;;;5028223;28;20864;-74
2022/01/12 03:23:31;;;;;;;13.23;8.50;;;0.60;99.90;;;;;;5028004;28;20182;-74
2022/01/12 03:25:56;;;;;;;13.00;6.43;;;0.50;99.90;;;;;;5021936;28;20502;-74
2022/01/12 03:28:22;;;;;;;10.00;6.00;;;0.50;99.90;;;;;;5028043;28;20926;-74
2022/01/12 03:30:54;;;;;;;9.43;5.70;;;0.50;99.90;;;;;;5028096;28;20178;-74
2022/01/12 03:36:28;;;;;;;7.30;5.23;;;0.40;99.90;;;;;;5009623;28;20409;-76
2022/01/12 03:39:04;;;;;;;9.10;5.90;;;0.40;99.90;;;;;;5032085;28;20989;-74
2022/01/12 03:41:34;;;;;;;7.87;5.30;;;0.30;99.90;;;;;;5028321;28;20456;-74
2022/01/12 03:44:01;;;;;;;8.53;4.90;;;0.30;99.90;;;;;;5026393;28;20425;-74
2022/01/12 03:46:37;;;;;;;8.37;5.50;;;0.30;99.90;;;;;;5027593;28;20723;-74
2022/01/12 03:49:03;;;;;;;7.67;5.10;;;0.20;99.90;;;;;;5027427;28;20851;-74
2022/01/12 03:51:29;;;;;;;7.90;4.97;;;0.30;99.90;;;;;;5028210;28;20424;-74
2022/01/12 03:53:55;;;;;;;7.30;4.97;;;0.20;99.90;;;;;;5026978;28;20420;-73
2022/01/12 03:56:20;;;;;;;7.03;4.80;;;0.20;99.90;;;;;;5027708;28;20217;-74
2022/01/12 03:58:46;;;;;;;7.43;4.97;;;0.10;99.90;;;;;;5026994;28;20256;-73
2022/01/12 04:01:11;;;;;;;6.27;4.63;;;0.20;99.90;;;;;;5027735;28;20186;-73
2022/01/12 04:03:44;;;;;;;8.57;5.47;;;0.30;99.90;;;;;;5027755;28;20181;-73
2022/01/12 04:08:54;;;;;;;5.80;4.60;;;0.30;99.90;;;;;;5038947;28;20956;-74
2022/01/12 04:11:20;;;;;;;7.07;4.40;;;0.30;99.90;;;;;;5027309;28;20456;-74
2022/01/12 04:13:48;;;;;;;5.30;4.20;;;0.20;99.90;;;;;;5026543;28;20269;-73
2022/01/12 04:16:13;;;;;;;7.13;4.70;;;0.40;99.90;;;;;;5025739;28;20204;-74
2022/01/12 04:18:40;;;;;;;7.47;4.77;;;0.10;99.90;;;;;;5027658;28;20510;-73
2022/01/12 04:21:08;;;;;;;6.53;4.33;;;0.10;99.90;;;;;;5024680;28;21409;-74
2022/01/12 04:23:35;;;;;;;5.97;4.77;;;0.00;99.90;;;;;;5007725;28;20413;-74
2022/01/12 04:26:10;;;;;;;7.83;4.80;;;0.10;99.90;;;;;;5021060;28;20830;-73
2022/01/12 04:28:38;;;;;;;8.33;4.60;;;0.00;99.90;;;;;;5020248;28;20946;-74
2022/01/12 04:31:03;;;;;;;6.40;4.80;;;0.00;99.90;;;;;;5026287;28;20471;-74
2022/01/12 04:33:30;;;;;;;9.50;5.67;;;0.00;99.90;;;;;;5027538;28;20428;-74
2022/01/12 04:35:56;;;;;;;6.20;4.37;;;0.00;99.90;;;;;;5026977;28;20188;-74
2022/01/12 04:38:28;;;;;;;7.70;4.73;;;0.00;99.90;;;;;;5036088;28;20482;-73
2022/01/12 04:40:54;;;;;;;7.70;4.53;;;0.00;99.90;;;;;;5023526;28;20424;-73
2022/01/12 04:43:22;;;;;;;7.30;5.13;;;0.00;99.90;;;;;;5026044;28;20417;-74
2022/01/12 04:50:48;;;;;;;8.10;4.53;;;-0.10;99.90;;;;;;5026934;28;20552;-74
2022/01/12 04:53:15;;;;;;;7.33;5.07;;;-0.20;99.90;;;;;;5027103;28;20967;-73
2022/01/12 04:55:42;;;;;;;5.80;4.33;;;-0.30;99.90;;;;;;5026341;28;20542;-74
2022/01/12 04:58:08;;;;;;;5.73;4.40;;;-0.20;99.90;;;;;;5027439;28;20510;-74
2022/01/12 05:00:35;;;;;;;6.20;4.20;;;-0.20;99.90;;;;;;5031038;28;20510;-74
2022/01/12 05:13:55;;;;;;;7.60;5.00;;;-0.20;99.90;;;;;;5027077;28;20188;-75
2022/01/12 05:16:22;;;;;;;6.90;4.90;;;-0.20;99.90;;;;;;5026981;28;20432;-74
2022/01/12 05:18:49;;;;;;;7.17;5.07;;;;;;;;;;5030752;28;20544;-74
2022/01/12 05:21:16;;;;;;;6.77;4.93;;;-0.20;99.90;;;;;;5030556;28;20451;-73
2022/01/12 05:23:42;;;;;;;7.03;5.17;;;-0.30;99.90;;;;;;5030462;28;20847;-74
2022/01/12 05:26:08;;;;;;;4.80;4.17;;;-0.30;99.90;;;;;;5030292;28;20447;-73
2022/01/12 05:28:34;;;;;;;6.33;4.63;;;-0.30;99.90;;;;;;5031508;28;20598;-74
2022/01/12 05:31:01;;;;;;;8.90;4.97;;;-0.30;99.90;;;;;;5030057;28;20497;-73
2022/01/12 05:33:28;;;;;;;9.40;5.20;;;-0.40;99.90;;;;;;5030867;28;20967;-72
2022/01/12 05:35:55;;;;;;;6.97;4.90;;;-0.40;99.90;;;;;;5030325;28;20417;-74
2022/01/12 05:38:22;;;;;;;7.17;4.77;;;-0.40;99.90;;;;;;5040250;28;21012;-74
2022/01/12 05:40:50;;;;;;;6.80;4.80;;;-0.40;99.90;;;;;;5033110;28;20770;-73
2022/01/12 05:43:21;;;;;;;7.87;4.73;;;-0.40;99.90;;;;;;5029303;28;20693;-74
2022/01/12 05:45:46;;;;;;;8.53;5.20;;;-0.40;99.90;;;;;;5029677;28;20431;-74
2022/01/12 05:50:39;;;;;;;7.50;4.50;;;-0.50;99.90;;;;;;5030366;28;20428;-73
2022/01/12 05:53:05;;;;;;;8.13;4.90;;;-0.50;99.90;;;;;;5030299;28;20253;-73
2022/01/12 05:55:30;;;;;;;6.73;4.80;;;-0.50;99.90;;;;;;5028917;28;20853;-73
2022/01/12 05:57:56;;;;;;;7.77;4.20;;;-0.60;99.90;;;;;;5030283;28;20571;-74
2022/01/12 06:00:24;;;;;;;11.27;8.03;;;-0.60;99.90;;;;;;5028025;28;20219;-74
2022/01/12 06:02:50;;;;;;;8.97;6.03;;;-0.60;99.90;;;;;;5029164;28;20220;-73
2022/01/12 06:05:18;;;;;;;10.70;5.67;;;-0.60;99.90;;;;;;5029406;28;20417;-73
2022/01/12 06:07:44;;;;;;;6.83;4.90;;;;;;;;;;5037111;28;20428;-73
2022/01/12 06:10:10;;;;;;;8.03;4.70;;;-0.50;99.90;;;;;;5032214;28;20539;-74
2022/01/12 06:12:37;;;;;;;6.90;4.80;;;-0.50;99.90;;;;;;5028065;28;21013;-74
2022/01/12 06:15:03;;;;;;;7.27;5.03;;;-0.60;99.90;;;;;;5036513;28;20183;-74
2022/01/12 06:17:28;;;;;;;8.37;4.73;;;-0.60;99.90;;;;;;5028916;28;20429;-74
2022/01/12 06:19:54;;;;;;;8.30;4.60;;;-0.60;99.90;;;;;;5029314;28;20483;-74
2022/01/12 06:22:19;;;;;;;7.87;5.50;;;-0.60;99.90;;;;;;5028970;28;20181;-74
2022/01/12 06:24:45;;;;;;;9.03;5.00;;;-0.60;99.90;;;;;;5028015;28;20220;-74
2022/01/12 06:27:14;;;;;;;9.10;6.00;;;-0.70;99.90;;;;;;5028416;28;20186;-74
2022/01/12 06:32:21;;;;;;;8.47;5.10;;;-0.60;99.90;;;;;;5029588;28;20496;-74
2022/01/12 06:34:47;;;;;;;16.03;8.87;;;;;;;;;;5028164;28;20853;-74
2022/01/12 06:37:13;;;;;;;12.00;7.47;;;-0.20;99.90;;;;;;5025577;28;20178;-74
2022/01/12 06:39:38;;;;;;;8.43;5.73;;;-0.30;99.90;;;;;;5028544;28;20452;-74
2022/01/12 06:42:04;;;;;;;10.97;6.37;;;-0.40;99.90;;;;;;5020128;28;20479;-74
2022/01/12 06:44:30;;;;;;;9.00;5.97;;;-0.50;99.90;;;;;;5017392;28;20286;-74
2022/01/12 06:47:01;;;;;;;9.50;5.73;;;;;;;;;;5032076;28;20610;-74
2022/01/12 06:49:27;;;;;;;9.93;5.80;;;-0.40;99.90;;;;;;5026968;28;20228;-74
2022/01/12 06:51:53;;;;;;;7.50;5.70;;;-0.40;99.90;;;;;;5029330;28;20448;-74
2022/01/12 06:54:18;;;;;;;9.57;6.83;;;-0.40;99.90;;;;;;5029483;28;20181;-74
2022/01/12 06:56:44;;;;;;;9.50;6.13;;;-0.40;99.90;;;;;;5031095;28;20779;-74
2022/01/12 06:59:10;;;;;;;8.97;5.83;;;-0.50;99.90;;;;;;5029138;28;20319;-74
2022/01/12 07:01:35;;;;;;;9.77;6.40;;;-0.50;99.90;;;;;;5028741;28;20253;-74
2022/01/12 07:04:01;;;;;;;9.37;5.67;;;-0.50;99.90;;;;;;5028414;28;20258;-74
2022/01/12 07:06:27;;;;;;;7.90;5.57;;;-0.60;99.90;;;;;;5028946;28;20174;-74
2022/01/12 07:08:53;;;;;;;13.73;6.20;;;-0.60;99.90;;;;;;5024705;28;20221;-75
2022/01/12 07:11:18;;;;;;;7.30;5.27;;;-0.70;99.90;;;;;;5029307;28;20185;-75
2022/01/12 07:13:44;;;;;;;8.30;5.47;;;-0.50;99.90;;;;;;5029268;28;20273;-73
2022/01/12 07:16:11;;;;;;;8.60;5.70;;;-0.50;99.90;;;;;;5030915;28;20182;-75
2022/01/12 07:18:37;;;;;;;8.40;6.13;;;-0.50;99.90;;;;;;5032180;28;20466;-75
2022/01/12 07:21:02;;;;;;;13.47;9.47;;;-0.50;99.90;;;;;;5028477;28;20479;-74
2022/01/12 07:23:28;;;;;;;14.07;9.10;;;-0.40;99.90;;;;;;5028087;28;20429;-73
2022/01/12 07:25:54;;;;;;;13.70;8.30;;;0.10;99.90;;;;;;5028346;28;20166;-74
2022/01/12 07:28:21;;;;;;;11.00;7.20;;;-0.20;99.90;;;;;;5027639;28;20209;-74
2022/01/12 07:30:47;;;;;;;10.00;6.43;;;-0.20;99.90;;;;;;5027798;28;20767;-75
2022/01/12 07:33:13;;;;;;;7.90;5.77;;;-0.10;99.90;;;;;;5027677;28;20425;-72
2022/01/12 07:35:40;;;;;;;8.27;5.20;;;-0.10;99.90;;;;;;5028448;28;20424;-74
2022/01/12 07:38:06;;;;;;;7.57;5.30;;;;;;;;;;5027568;28;20456;-75
2022/01/12 07:40:33;;;;;;;7.30;4.90;;;0.10;99.90;;;;;;5027891;28;20405;-74
2022/01/12 07:42:59;;;;;;;7.27;5.30;;;0.10;99.90;;;;;;5028254;28;20168;-74
2022/01/12 07:45:25;;;;;;;7.70;5.30;;;0.30;99.90;;;;;;5035390;28;20910;-74
2022/01/12 07:47:50;;;;;;;11.07;5.53;;;0.20;99.90;;;;;;5046055;28;20177;-74
2022/01/12 07:50:16;;;;;;;8.73;4.97;;;0.50;99.90;;;;;;5048227;28;20181;-74
2022/01/12 07:52:41;;;;;;;7.53;4.87;;;0.30;99.90;;;;;;5048078;28;20231;-74
2022/01/12 07:55:07;;;;;;;7.50;5.03;;;0.30;99.90;;;;;;5032770;28;20173;-72
2022/01/12 07:57:34;;;;;;;9.10;5.20;;;0.30;99.90;;;;;;5028587;28;20239;-74
2022/01/12 07:59:59;;;;;;;8.60;5.80;;;0.40;99.90;;;;;;5028142;28;20476;-74
2022/01/12 08:02:25;;;;;;;12.70;6.87;;;0.40;99.90;;;;;;5028437;28;20422;-74
2022/01/12 08:04:50;;;;;;;9.50;6.70;;;0.40;99.90;;;;;;5028182;28;20623;-74
2022/01/12 08:07:16;;;;;;;14.23;9.27;;;0.40;99.90;;;;;;5026493;28;20520;-74
2022/01/12 08:09:43;;;;;;;16.90;10.40;;;0.40;99.90;;;;;;5028118;28;20220;-74
2022/01/12 08:12:10;;;;;;;11.10;8.00;;;0.40;99.90;;;;;;5028600;28;20178;-73
2022/01/12 08:14:36;;;;;;;8.60;6.20;;;;;;;;;;5032003;28;20416;-74
2022/01/12 08:17:02;;;;;;;8.53;6.20;;;0.60;99.90;;;;;;5039437;28;20403;-74
2022/01/12 08:19:29;;;;;;;12.40;6.27;;;0.60;99.90;;;;;;5047994;28;20501;-74
2022/01/12 08:21:55;;;;;;;10.60;5.70;;;0.60;99.90;;;;;;5046749;28;20420;-74
2022/01/12 08:24:21;;;;;;;10.00;5.90;;;0.60;99.90;;;;;;5047123;28;20429;-72
2022/01/12 08:26:47;;;;;;;7.70;5.87;;;0.60;99.90;;;;;;5020339;28;20409;-74
2022/01/12 08:29:15;;;;;;;9.30;5.53;;;0.60;99.90;;;;;;5025003;28;20288;-74
2022/01/12 08:31:42;;;;;;;8.20;5.90;;;0.60;99.90;;;;;;5026175;28;20438;-73
2022/01/12 08:34:10;;;;;;;9.53;5.70;;;0.60;99.90;;;;;;5027831;28;20427;-74
2022/01/12 08:36:35;;;;;;;9.13;5.90;;;0.70;99.90;;;;;;5028112;28;20423;-74
2022/01/12 08:39:02;;;;;;;9.23;6.83;;;0.90;99.90;;;;;;5025701;28;20838;-74
2022/01/12 08:41:28;;;;;;;8.43;5.80;;;0.90;99.90;;;;;;5028326;28;20217;-74
2022/01/12 08:43:54;;;;;;;10.63;6.93;;;0.90;99.90;;;;;;5027938;28;20497;-74
2022/01/12 08:46:19;;;;;;;17.70;10.57;;;1.00;99.90;;;;;;5035858;28;20528;-74
2022/01/12 08:48:45;;;;;;;25.37;12.73;;;1.20;99.90;;;;;;5047999;28;20700;-73
2022/01/12 08:51:10;;;;;;;13.40;8.50;;;1.20;99.90;;;;;;5048399;28;20181;-74
2022/01/12 08:53:36;;;;;;;15.10;8.60;;;1.30;99.90;;;;;;5051451;28;20286;-74
2022/01/12 08:56:02;;;;;;;17.00;9.93;;;1.50;99.90;;;;;;5038459;28;20233;-74
2022/01/12 08:58:28;;;;;;;12.60;8.67;;;1.70;99.90;;;;;;5031937;28;20299;-74
2022/01/12 09:00:56;;;;;;;13.30;7.77;;;;;;;;;;5031479;28;20843;-74
2022/01/12 09:03:22;;;;;;;17.03;8.47;;;1.90;99.90;;;;;;5031933;28;20180;-74
2022/01/12 09:05:49;;;;;;;9.30;6.53;;;2.10;99.90;;;;;;5031536;28;20459;-74
2022/01/12 09:08:15;;;;;;;11.97;6.00;;;2.50;99.90;;;;;;5028010;28;20467;-74
2022/01/12 09:10:40;;;;;;;8.33;6.23;;;2.90;99.90;;;;;;5031217;28;20925;-74
2022/01/12 09:13:06;;;;;;;8.67;6.10;;;2.90;99.90;;;;;;5032126;28;20424;-74
2022/01/12 09:15:32;;;;;;;10.03;6.90;;;3.60;99.90;;;;;;5039504;28;20185;-74
2022/01/12 09:17:58;;;;;;;15.20;7.20;;;4.20;99.90;;;;;;5046830;28;20915;-74
2022/01/12 09:20:24;;;;;;;10.03;7.10;;;4.60;99.90;;;;;;5052017;28;20169;-74
2022/01/12 09:22:50;;;;;;;11.33;7.70;;;4.50;99.90;;;;;;5051694;28;20249;-74
2022/01/12 09:25:16;;;;;;;11.30;7.57;;;4.60;99.90;;;;;;5049667;28;20751;-74
2022/01/12 09:27:42;;;;;;;10.90;7.40;;;4.50;99.90;;;;;;5051639;28;20533;-75
2022/01/12 09:30:10;;;;;;;9.10;6.93;;;4.50;99.90;;;;;;5028172;28;20487;-74
2022/01/12 09:32:36;;;;;;;8.97;6.63;;;4.40;99.90;;;;;;5031501;28;20274;-74
2022/01/12 09:35:01;;;;;;;9.93;7.23;;;4.20;99.90;;;;;;5031083;28;20527;-74
2022/01/12 09:37:27;;;;;;;9.80;7.10;;;4.20;99.90;;;;;;5031011;28;20189;-74
2022/01/12 09:39:53;;;;;;;11.10;7.63;;;4.40;99.90;;;;;;5030763;28;20277;-74
2022/01/12 09:42:19;;;;;;;10.07;7.60;;;4.40;99.90;;;;;;5031384;28;20886;-74
2022/01/12 09:44:46;;;;;;;12.17;7.63;;;4.40;99.90;;;;;;5036220;28;20234;-73
2022/01/12 09:47:12;;;;;;;10.10;7.13;;;4.50;99.90;;;;;;5041276;28;20657;-74
2022/01/12 09:49:38;;;;;;;10.53;7.63;;;5.30;99.90;;;;;;5051491;28;20459;-74
2022/01/12 09:52:04;;;;;;;8.97;7.10;;;6.50;99.90;;;;;;5051299;28;20169;-74
2022/01/12 09:54:30;;;;;;;10.70;7.47;;;8.30;99.90;;;;;;5041748;28;20290;-74
2022/01/12 09:57:00;;;;;;;10.53;7.17;;;11.50;99.90;;;;;;5030755;28;20994;-75
2022/01/12 09:59:26;;;;;;;11.63;7.87;;;11.90;99.90;;;;;;5029555;28;20471;-75
2022/01/12 10:01:54;;;;;;;8.70;7.37;;;12.60;99.90;;;;;;5029916;28;20872;-76
2022/01/12 10:04:25;;;;;;;8.50;7.40;;;13.90;99.90;;;;;;5030807;28;20405;-75
2022/01/12 10:06:58;;;;;;;11.00;8.17;;;15.10;99.90;;;;;;5031284;28;20411;-75
2022/01/12 10:09:39;;;;;;;10.07;8.33;;;16.10;99.90;;;;;;5030295;28;20452;-75
2022/01/12 10:12:13;;;;;;;11.10;8.83;;;17.60;99.90;;;;;;5029484;28;21074;-75
2022/01/12 10:14:55;;;;;;;10.40;9.20;;;16.90;99.90;;;;;;5034830;28;20516;-75
2022/01/12 10:17:30;;;;;;;12.87;10.37;;;16.90;99.90;;;;;;5042333;28;20430;-75
2022/01/12 10:20:08;;;;;;;12.10;10.20;;;15.90;99.90;;;;;;5050592;28;20632;-75
2022/01/12 10:22:34;;;;;;;10.60;9.50;;;;;;;;;;5050329;28;20412;-75
2022/01/12 10:25:01;;;;;;;11.27;9.50;;;15.40;99.90;;;;;;5038897;28;20413;-75
2022/01/12 10:27:27;;;;;;;11.27;10.07;;;15.30;99.90;;;;;;5029654;28;20282;-75
2022/01/12 10:29:58;;;;;;;12.10;10.40;;;16.50;99.90;;;;;;5028361;28;20526;-76
2022/01/12 10:32:24;;;;;;;14.47;10.93;;;16.70;99.90;;;;;;5030308;28;20207;-75
2022/01/12 10:34:50;;;;;;;12.60;10.70;;;16.80;99.90;;;;;;5029950;28;20522;-75
2022/01/12 10:37:22;;;;;;;12.77;10.53;;;17.10;99.90;;;;;;5030021;28;20420;-75
2022/01/12 10:39:50;;;;;;;12.10;10.03;;;16.90;99.90;;;;;;5030079;28;20545;-75
2022/01/12 10:42:22;;;;;;;12.90;10.87;;;17.40;99.90;;;;;;5029540;28;20410;-75
2022/01/12 10:44:53;;;;;;;14.10;11.57;;;18.40;99.90;;;;;;5035251;28;20413;-75
2022/01/12 10:47:29;;;;;;;13.93;11.30;;;19.70;99.90;;;;;;5040101;28;20489;-75
2022/01/12 10:49:54;;;;;;;13.90;11.87;;;19.70;99.90;;;;;;5049893;28;20443;-75
2022/01/12 10:52:24;;;;;;;14.40;11.47;;;19.50;99.90;;;;;;5045358;28;20426;-75
2022/01/12 10:54:52;;;;;;;12.60;11.10;;;18.60;99.90;;;;;;5029409;28;20183;-72
2022/01/12 10:57:23;;;;;;;14.10;11.63;;;19.10;99.90;;;;;;5028448;28;20419;-74
2022/01/12 11:00:18;;;;;;;14.43;11.70;;;19.30;99.90;;;;;;5029458;28;20980;-73
2022/01/12 11:02:44;;;;;;;12.93;11.20;;;19.30;99.90;;;;;;5028341;28;20431;-72
2022/01/12 11:05:10;;;;;;;11.53;10.27;;;;;;;;;;5029528;28;20482;-72
2022/01/12 11:07:36;;;;;;;13.20;10.83;;;18.50;99.90;;;;;;5028817;28;20688;-72
2022/01/12 11:10:05;;;;;;;12.63;11.10;;;18.50;99.90;;;;;;5029029;28;20216;-73
2022/01/12 11:12:31;;;;;;;13.10;11.67;;;18.60;99.90;;;;;;5028045;28;20419;-72
2022/01/12 11:14:56;;;;;;;13.80;11.70;;;19.50;99.90;;;;;;5036248;28;20514;-73
2022/01/12 11:17:23;;;;;;;15.10;12.00;;;;;;;;;;5040992;28;20185;-73
2022/01/12 11:20:18;;;;;;;14.20;12.27;;;22.20;99.90;;;;;;5049359;28;20727;-73
2022/01/12 11:23:04;;;;;;;16.50;13.00;;;22.10;99.90;;;;;;5049089;28;20407;-73
2022/01/12 11:25:45;;;;;;;15.43;11.67;;;22.30;99.90;;;;;;5048931;28;20406;-72
2022/01/12 11:28:23;;;;;;;13.07;11.50;;;22.70;99.90;;;;;;5041483;28;20542;-73
2022/01/12 11:30:53;;;;;;;15.40;12.17;;;22.70;99.90;;;;;;5028806;28;20503;-73
2022/01/12 11:33:29;;;;;;;15.00;11.73;;;22.10;99.90;;;;;;5029007;28;20461;-72
2022/01/12 11:35:56;;;;;;;14.43;11.93;;;22.10;99.90;;;;;;5029316;28;20460;-73
2022/01/12 11:38:25;;;;;;;17.00;12.50;;;21.40;99.90;;;;;;5028827;28;20840;-72
2022/01/12 11:40:54;;;;;;;14.63;11.73;;;22.40;99.90;;;;;;5028848;28;20418;-74
2022/01/12 11:43:25;;;;;;;20.10;12.80;;;22.40;99.90;;;;;;5029278;28;20833;-73
2022/01/12 11:46:09;;;;;;;14.00;11.60;;;22.20;99.90;;;;;;5037069;28;20771;-73
2022/01/12 11:48:56;;;;;;;14.10;12.60;;;22.40;99.90;;;;;;5009354;28;20432;-73
2022/01/12 11:51:42;;;;;;;18.57;12.63;;;21.90;99.90;;;;;;5009260;28;20420;-73
2022/01/12 11:54:16;;;;;;;15.07;12.43;;;21.10;99.90;;;;;;5008178;28;20412;-71
2022/01/12 11:56:56;;;;;;;13.97;11.70;;;20.90;99.90;;;;;;5026859;28;20490;-73
2022/01/12 11:59:23;;;;;;;17.43;12.00;;;20.40;99.90;;;;;;5027307;28;20479;-73
2022/01/12 12:02:04;;;;;;;14.00;11.00;;;20.40;99.90;;;;;;5028458;28;20877;-72
2022/01/12 12:04:32;;;;;;;13.50;11.60;;;20.70;99.90;;;;;;5028930;28;20420;-72
2022/01/12 12:07:08;;;;;;;16.20;13.30;;;20.60;99.90;;;;;;5028719;28;20412;-72
2022/01/12 12:09:56;;;;;;;12.93;11.30;;;19.80;99.90;;;;;;5028014;28;20460;-72
2022/01/12 12:12:26;;;;;;;16.20;12.27;;;19.10;99.90;;;;;;5028943;28;20944;-72
2022/01/12 12:14:55;;;;;;;14.30;11.50;;;18.80;99.90;;;;;;5033956;28;20538;-72
2022/01/12 12:17:23;;;;;;;13.77;11.77;;;19.10;99.90;;;;;;5039923;28;20430;-72
2022/01/12 12:19:50;;;;;;;13.50;11.43;;;19.40;99.90;;;;;;5048429;28;20968;-72
2022/01/12 12:22:22;;;;;;;12.73;10.80;;;19.60;99.90;;;;;;5048217;28;20402;-74
2022/01/12 12:24:54;;;;;;;12.47;10.90;;;19.60;99.90;;;;;;5043782;28;20419;-73
2022/01/12 12:27:22;;;;;;;13.43;11.23;;;20.40;99.90;;;;;;5027989;28;20406;-74
2022/01/12 12:29:48;;;;;;;13.63;11.07;;;21.80;99.90;;;;;;5026147;28;20499;-74
2022/01/12 12:32:15;;;;;;;13.27;11.50;;;22.20;99.90;;;;;;5028353;28;20411;-73
2022/01/12 12:34:43;;;;;;;13.30;11.13;;;22.90;99.90;;;;;;5026749;28;20422;-74
2022/01/12 12:37:12;;;;;;;14.10;11.73;;;22.80;99.90;;;;;;5028316;28;20769;-73
2022/01/12 12:39:40;;;;;;;16.87;11.90;;;21.80;99.90;;;;;;5028465;28;20546;-75
2022/01/12 12:42:17;;;;;;;12.20;10.90;;;22.50;99.90;;;;;;5028189;28;20498;-73
2022/01/12 12:44:43;;;;;;;12.83;11.17;;;;;;;;;;5032654;28;20406;-73
2022/01/12 12:47:13;;;;;;;14.50;11.53;;;18.70;99.90;;;;;;5038118;28;20428;-74
2022/01/12 12:49:52;;;;;;;15.00;11.13;;;17.70;99.90;;;;;;5036090;28;20474;-74
2022/01/12 12:52:31;;;;;;;13.07;10.83;;;18.70;99.90;;;;;;5027971;28;20408;-73
2022/01/12 12:54:59;;;;;;;11.27;10.07;;;20.70;99.90;;;;;;5027517;28;20414;-74
2022/01/12 12:57:26;;;;;;;13.00;10.30;;;20.60;99.90;;;;;;5028190;28;20422;-74
2022/01/12 13:00:03;;;;;;;11.90;10.60;;;20.40;99.90;;;;;;5027612;28;20483;-74
2022/01/12 13:02:38;;;;;;;11.80;10.30;;;21.00;99.90;;;;;;5028148;28;20419;-74
2022/01/12 13:05:05;;;;;;;13.80;10.80;;;20.60;99.90;;;;;;5028096;28;20426;-73
2022/01/12 13:07:39;;;;;;;15.10;10.80;;;17.40;99.90;;;;;;5027080;28;20962;-73
2022/01/12 13:10:07;;;;;;;14.33;11.07;;;17.20;99.90;;;;;;5027518;28;20459;-74
2022/01/12 13:12:40;;;;;;;12.83;11.33;;;13.20;99.90;;;;;;5028108;28;20932;-73
2022/01/12 13:15:10;;;;;;;13.30;9.57;;;12.90;99.90;;;;;;5035437;28;20456;-74
2022/01/12 13:17:39;;;;;;;11.50;8.80;;;11.80;99.90;;;;;;5032669;28;20913;-73
2022/01/12 13:22:45;;;;;;;11.53;8.90;;;10.30;99.90;;;;;;5047921;28;20410;-73
2022/01/12 13:25:12;;;;;;;9.37;7.93;;;10.20;99.90;;;;;;5047513;28;20404;-73
2022/01/12 13:27:39;;;;;;;11.00;8.60;;;10.30;99.90;;;;;;5048098;28;20415;-73
2022/01/12 13:30:08;;;;;;;10.07;8.43;;;10.40;99.90;;;;;;5025222;28;20838;-73
2022/01/12 13:32:37;;;;;;;10.97;7.60;;;10.70;99.90;;;;;;5008156;28;20503;-73
2022/01/12 13:35:09;;;;;;;11.20;8.30;;;10.90;99.90;;;;;;5008003;28;20836;-73
2022/01/12 13:37:36;;;;;;;12.60;9.00;;;10.90;99.90;;;;;;5008954;28;20414;-73
2022/01/12 13:40:12;;;;;;;11.23;9.07;;;13.00;99.90;;;;;;5011411;28;20556;-74
2022/01/12 13:42:56;;;;;;;13.20;8.13;;;10.60;99.90;;;;;;5011698;28;20487;-72
2022/01/12 13:45:44;;;;;;;12.83;8.60;;;10.50;99.90;;;;;;5030250;28;20569;-73
2022/01/12 13:48:17;;;;;;;10.70;8.10;;;10.20;99.90;;;;;;5048197;28;20450;-73
2022/01/12 13:51:03;;;;;;;10.93;8.03;;;10.20;99.90;;;;;;5048972;28;20404;-72
2022/01/12 13:53:37;;;;;;;10.90;8.70;;;9.80;99.90;;;;;;5050728;28;20457;-73
2022/01/12 13:56:04;;;;;;;10.87;7.83;;;9.60;99.90;;;;;;5026358;28;20431;-73
2022/01/12 13:58:35;;;;;;;12.80;8.47;;;9.20;99.90;;;;;;5030897;28;20460;-73
2022/01/12 14:01:11;;;;;;;13.23;10.43;;;9.00;99.90;;;;;;5031068;28;20486;-73
2022/01/12 14:03:42;;;;;;;13.60;9.07;;;8.50;99.90;;;;;;5030814;28;20408;-73
2022/01/12 14:06:25;;;;;;;39.20;23.00;;;8.10;99.90;;;;;;5030964;28;20466;-73
2022/01/12 14:08:56;;;;;;;11.47;9.07;;;7.90;99.90;;;;;;5030136;28;20456;-72
2022/01/12 14:11:32;;;;;;;11.20;7.37;;;7.80;99.90;;;;;;5030992;28;20465;-73
2022/01/12 14:13:59;;;;;;;15.40;8.23;;;8.00;99.90;;;;;;5030627;28;20476;-72
2022/01/12 14:16:29;;;;;;;10.97;8.50;;;8.40;99.90;;;;;;5040046;28;20503;-73
2022/01/12 14:18:58;;;;;;;12.50;9.37;;;8.40;99.90;;;;;;5050551;28;20771;-73
2022/01/12 14:21:24;;;;;;;13.17;9.17;;;8.30;99.90;;;;;;5050734;28;20436;-73
2022/01/12 14:23:49;;;;;;;13.93;8.33;;;8.10;99.90;;;;;;5049742;28;20399;-72